Pelican — WDC4616 — position and weather

sailwx.info

Track history (hours):
 
Tides and Currents Weather Stations Pressure Air Temp Water Temp Dewpoint Dewpoint Depression Visibility Wind Speed Wind Dir Waves Ship Positions

Pelican

Owner: Scherba Jr., Stephen, Seattle, WA. More information available from US FCC via Universal Licensing System and Coast Guard Vessel Documentation Center.

Last reported at 2015-Jul-03 22:06 UTC. Time now 2015-Jul-06 13:33 UTC.
Position N 48°51' W 123°30'.

Length 16 m; draft 2 m.

Type: Pleasure craft. MMSI: 367027560.

Date/timePositionNaut miles runAvg speedWind from/ knotsBaromVisibWave heightAir tempDewpointWater temp
2015-Jul-03 22:06N 48°51' W 123°30'1 1.4
2015-Jul-03 21:29N 48°51' W 123°29'  
2015-Jun-29 18:33N 48°40' W 123°24'1 6.9
2015-Jun-29 18:27N 48°40' W 123°23'8 8.6
2015-Jun-29 17:32N 48°38' W 123°11'1 6.1
2015-Jun-29 17:22N 48°37' W 123°10'  
2015-Jun-25 23:31N 48°37' W 123°09'0 0.6
2015-Jun-25 23:27N 48°37' W 123°09'4 4.7
2015-Jun-25 22:33N 48°32' W 123°11'8 8.2
2015-Jun-25 21:33N 48°26' W 123°04'34 8.0
2015-Jun-25 17:17N 47°58' W 122°34'3 8.0
2015-Jun-25 16:53N 47°56' W 122°30'3 8.2
2015-Jun-25 16:33N 47°54' W 122°28'2 8.7
2015-Jun-25 16:18N 47°51' W 122°27'6 8.6
2015-Jun-25 15:33N 47°45' W 122°25'0 8.2
2015-Jun-25 15:33N 47°45' W 122°25'4 0.5
2015-Jun-25 06:29N 47°41' W 122°24'0 0.0
2015-Jun-25 06:17N 47°41' W 122°24'0 0.0
2015-Jun-25 05:47N 47°41' W 122°24'0 0.0
2015-Jun-25 05:29N 47°41' W 122°24'0 0.0
2015-Jun-25 04:32N 47°41' W 122°24'0 0.1
2015-Jun-25 04:26N 47°41' W 122°24'1 1.0
2015-Jun-25 03:26N 47°40' W 122°24'0 0.0
2015-Jun-25 03:20N 47°40' W 122°24'3 4.0
2015-Jun-25 02:33N 47°38' W 122°20'  
Track history (hours):
 
Tides and Currents Weather Stations Pressure Air Temp Water Temp Dewpoint Dewpoint Depression Visibility Wind Speed Wind Dir Waves Ship Positions

Pelican

Owner: Scherba Jr., Stephen, Seattle, WA. More information available from US FCC via Universal Licensing System and Coast Guard Vessel Documentation Center.

Last reported at 2015-Jul-03 22:06 UTC. Time now 2015-Jul-06 13:33 UTC.
Position N 48°51' W 123°30'.

Length 16 m; draft 2 m.

Type: Pleasure craft. MMSI: 367027560.

Date/timePositionNaut miles runAvg speedWind from/ knotsBaromVisibWave heightAir tempDewpointWater temp
2015-Jul-03 22:06N 48°51' W 123°30'1 1.4
2015-Jul-03 21:29N 48°51' W 123°29'  
2015-Jun-29 18:33N 48°40' W 123°24'1 6.9
2015-Jun-29 18:27N 48°40' W 123°23'8 8.6
2015-Jun-29 17:32N 48°38' W 123°11'1 6.1
2015-Jun-29 17:22N 48°37' W 123°10'  
2015-Jun-25 23:31N 48°37' W 123°09'0 0.6
2015-Jun-25 23:27N 48°37' W 123°09'4 4.7
2015-Jun-25 22:33N 48°32' W 123°11'8 8.2
2015-Jun-25 21:33N 48°26' W 123°04'34 8.0
2015-Jun-25 17:17N 47°58' W 122°34'3 8.0
2015-Jun-25 16:53N 47°56' W 122°30'3 8.2
2015-Jun-25 16:33N 47°54' W 122°28'2 8.7
2015-Jun-25 16:18N 47°51' W 122°27'6 8.6
2015-Jun-25 15:33N 47°45' W 122°25'0 8.2
2015-Jun-25 15:33N 47°45' W 122°25'4 0.5
2015-Jun-25 06:29N 47°41' W 122°24'0 0.0
2015-Jun-25 06:17N 47°41' W 122°24'0 0.0
2015-Jun-25 05:47N 47°41' W 122°24'0 0.0
2015-Jun-25 05:29N 47°41' W 122°24'0 0.0
2015-Jun-25 04:32N 47°41' W 122°24'0 0.1
2015-Jun-25 04:26N 47°41' W 122°24'1 1.0
2015-Jun-25 03:26N 47°40' W 122°24'0 0.0
2015-Jun-25 03:20N 47°40' W 122°24'3 4.0
2015-Jun-25 02:33N 47°38' W 122°20'  

Dump ship's entire track history